Time;durP1;ratioP1;P1;durP2;ratioP2;P2;SDS_P1;SDS_P2;PMS_P1;PMS_P2;Temp;Humidity;BMP_temperature;BMP_pressure;BME280_temperature;BME280_humidity;BME280_pressure;Samples;Min_cycle;Max_cycle;Signal;HPM_P1;HPM_P2
2022/12/29 00:01:24;;;;;;;5.95;2.53;;;8.40;99.90;;;;;;4360262;28;10000479;-71
2022/12/29 00:03:50;;;;;;;9.07;2.60;;;8.40;99.90;;;;;;5054920;28;21038;-71
2022/12/29 00:06:16;;;;;;;3.85;2.55;;;8.30;99.90;;;;;;5053285;28;20074;-70
2022/12/29 00:08:42;;;;;;;4.25;2.40;;;8.40;99.90;;;;;;5068556;28;20071;-71
2022/12/29 00:11:19;;;;;;;6.50;2.40;;;8.40;99.90;;;;;;5058851;28;20036;-71
2022/12/29 00:16:30;;;;;;;4.90;2.65;;;8.40;99.90;;;;;;5059537;28;20035;-71
2022/12/29 00:18:56;;;;;;;4.03;2.67;;;8.40;99.90;;;;;;5057364;28;20187;-71
2022/12/29 00:35:25;;;;;;;4.10;2.80;;;8.40;99.90;;;;;;5059410;28;20086;-70
2022/12/29 00:46:04;;;;;;;5.60;2.70;;;8.50;99.90;;;;;;5052093;28;20044;-70
2022/12/29 00:51:13;;;;;;;2.63;2.40;;;8.50;99.90;;;;;;5064211;28;20086;-70
2022/12/29 00:53:39;;;;;;;3.42;2.70;;;8.50;99.90;;;;;;5076111;28;20021;-70
2022/12/29 00:56:04;;;;;;;4.63;2.75;;;8.50;99.90;;;;;;5065007;28;20431;-70
2022/12/29 00:58:30;;;;;;;4.13;2.72;;;8.60;99.90;;;;;;5060194;28;20028;-70
2022/12/29 01:01:08;;;;;;;5.00;2.78;;;8.60;99.90;;;;;;5063662;28;20647;-71
2022/12/29 01:03:35;;;;;;;6.25;3.28;;;8.60;99.90;;;;;;5047944;28;20065;-70
2022/12/29 01:06:06;;;;;;;4.07;2.95;;;8.60;99.90;;;;;;5056970;28;20479;-71
2022/12/29 01:08:32;;;;;;;5.18;2.97;;;8.70;99.90;;;;;;5059856;28;20040;-71
2022/12/29 01:11:11;;;;;;;3.53;2.78;;;8.70;99.90;;;;;;5060212;28;20029;-70
2022/12/29 01:13:43;;;;;;;6.78;2.78;;;8.70;99.90;;;;;;5056999;28;20476;-71
2022/12/29 01:16:09;;;;;;;7.82;3.30;;;8.70;99.90;;;;;;5059942;28;20099;-71
2022/12/29 01:18:35;;;;;;;4.43;2.95;;;8.70;99.90;;;;;;5056862;28;20119;-71
2022/12/29 01:21:01;;;;;;;4.90;3.13;;;8.70;99.90;;;;;;5060329;28;20056;-71
2022/12/29 01:23:27;;;;;;;4.75;2.72;;;8.70;99.90;;;;;;5058082;28;20194;-71
2022/12/29 01:25:53;;;;;;;4.65;3.00;;;8.70;99.90;;;;;;5059063;28;20485;-71
2022/12/29 01:28:19;;;;;;;4.63;2.65;;;8.80;99.90;;;;;;5064487;28;20052;-71
2022/12/29 01:30:44;;;;;;;6.45;2.78;;;8.80;99.90;;;;;;5064356;28;20027;-70
2022/12/29 01:33:10;;;;;;;4.78;2.72;;;8.80;99.90;;;;;;5066448;28;20071;-71
2022/12/29 01:35:35;;;;;;;4.57;2.70;;;8.80;99.90;;;;;;5059546;28;20485;-70
2022/12/29 01:38:01;;;;;;;6.55;2.70;;;8.80;99.90;;;;;;5068085;28;20058;-70
2022/12/29 01:40:28;;;;;;;6.30;2.67;;;8.90;99.90;;;;;;5060828;28;20043;-71
2022/12/29 01:42:53;;;;;;;4.65;2.78;;;8.90;99.90;;;;;;5056057;28;20036;-70
2022/12/29 01:45:19;;;;;;;4.45;2.85;;;8.90;99.90;;;;;;5062905;28;20417;-71
2022/12/29 01:47:48;;;;;;;3.65;2.80;;;8.90;99.90;;;;;;5062414;28;20143;-70
2022/12/29 01:50:39;;;;;;;4.05;2.60;;;8.90;99.90;;;;;;5063687;28;20029;-70
2022/12/29 01:53:17;;;;;;;5.53;2.40;;;8.90;99.90;;;;;;5066706;28;20077;-70
2022/12/29 01:55:49;;;;;;;4.72;2.88;;;9.00;99.90;;;;;;5058234;28;20718;-71
2022/12/29 01:58:18;;;;;;;5.55;2.60;;;9.00;99.90;;;;;;5056435;28;20119;-70
2022/12/29 02:00:43;;;;;;;4.22;2.60;;;9.00;99.90;;;;;;5064465;28;20562;-70
2022/12/29 02:03:10;;;;;;;6.65;3.20;;;9.00;99.90;;;;;;5059826;28;20029;-71
2022/12/29 02:06:09;;;;;;;4.22;2.60;;;9.00;99.90;;;;;;5058709;28;20189;-70
2022/12/29 02:08:36;;;;;;;5.55;2.58;;;9.10;99.90;;;;;;5065867;28;20032;-70
2022/12/29 02:11:02;;;;;;;5.55;2.63;;;9.10;99.90;;;;;;5072640;28;20111;-71
2022/12/29 02:13:28;;;;;;;3.97;2.70;;;9.10;99.90;;;;;;5056067;28;20706;-71
2022/12/29 02:16:06;;;;;;;6.03;2.97;;;9.10;99.90;;;;;;5055904;28;20358;-70
2022/12/29 02:19:09;;;;;;;5.05;2.65;;;9.10;99.90;;;;;;5057156;28;20052;-71
2022/12/29 02:22:00;;;;;;;4.40;2.60;;;9.10;99.90;;;;;;5061582;28;20476;-71
2022/12/29 02:24:48;;;;;;;4.65;2.80;;;9.10;99.90;;;;;;5066306;28;20063;-70
2022/12/29 02:27:50;;;;;;;6.88;3.10;;;9.10;99.90;;;;;;5064599;28;20036;-71
2022/12/29 02:30:34;;;;;;;6.35;3.70;;;9.10;99.90;;;;;;5062116;28;21123;-71
2022/12/29 02:33:21;;;;;;;6.28;3.22;;;9.10;99.90;;;;;;5066700;28;20049;-71
2022/12/29 02:36:19;;;;;;;4.53;2.97;;;9.10;99.90;;;;;;5060301;28;20140;-71
2022/12/29 02:39:19;;;;;;;6.55;3.00;;;9.10;99.90;;;;;;5060138;28;20405;-71
2022/12/29 02:42:28;;;;;;;5.45;2.97;;;9.10;99.90;;;;;;5031924;28;20609;-70
2022/12/29 02:45:02;;;;;;;5.28;3.13;;;9.10;99.90;;;;;;5026782;28;20052;-71
2022/12/29 02:47:56;;;;;;;5.72;2.88;;;9.10;99.90;;;;;;5063677;28;20489;-71
2022/12/29 02:50:36;;;;;;;7.65;3.00;;;9.10;99.90;;;;;;5058994;28;20651;-71
2022/12/29 02:53:14;;;;;;;4.05;2.38;;;9.10;99.90;;;;;;5064861;28;20548;-71
2022/12/29 02:55:48;;;;;;;3.60;2.38;;;9.10;99.90;;;;;;5059819;28;20107;-70
2022/12/29 02:58:19;;;;;;;2.78;2.15;;;9.10;99.90;;;;;;5062826;28;20451;-70
2022/12/29 03:00:56;;;;;;;6.30;2.85;;;9.10;99.90;;;;;;5074550;28;20029;-71
2022/12/29 03:03:30;;;;;;;3.95;2.72;;;9.10;99.90;;;;;;5055244;28;20032;-70
2022/12/29 03:06:31;;;;;;;7.18;2.65;;;9.10;99.90;;;;;;5068575;28;20525;-71
2022/12/29 03:09:21;;;;;;;3.80;2.40;;;9.10;99.90;;;;;;5069112;28;20204;-70
2022/12/29 03:12:11;;;;;;;5.35;2.60;;;9.10;99.90;;;;;;5058684;28;20044;-70
2022/12/29 03:17:48;;;;;;;3.38;2.20;;;9.10;99.90;;;;;;5059907;28;20032;-70
2022/12/29 03:20:20;;;;;;;6.25;2.28;;;9.10;99.90;;;;;;5066441;28;20044;-71
2022/12/29 03:22:51;;;;;;;6.85;2.08;;;9.10;99.90;;;;;;5058298;28;20276;-71
2022/12/29 03:25:28;;;;;;;2.78;2.13;;;9.10;99.90;;;;;;5060085;28;20045;-71
2022/12/29 03:27:58;;;;;;;2.53;2.03;;;9.10;99.90;;;;;;5066079;28;20119;-71
2022/12/29 03:30:25;;;;;;;2.67;1.83;;;9.10;99.90;;;;;;5058298;28;20055;-70
2022/12/29 03:32:55;;;;;;;4.82;1.90;;;9.10;99.90;;;;;;5061856;28;20020;-71
2022/12/29 03:35:22;;;;;;;3.88;1.80;;;9.20;99.90;;;;;;5059300;28;20104;-71
2022/12/29 03:38:13;;;;;;;2.13;1.80;;;9.20;99.90;;;;;;5059415;28;20212;-71
2022/12/29 03:40:43;;;;;;;2.67;1.40;;;9.20;99.90;;;;;;5060815;28;20042;-71
2022/12/29 03:43:09;;;;;;;3.35;1.60;;;9.20;99.90;;;;;;5064004;28;20070;-71
2022/12/29 03:45:35;;;;;;;3.22;1.42;;;9.30;99.90;;;;;;5057938;28;20525;-71
2022/12/29 03:48:00;;;;;;;3.88;1.30;;;9.30;99.90;;;;;;5069361;28;20043;-71
2022/12/29 03:50:26;;;;;;;3.17;1.20;;;9.30;99.90;;;;;;5057844;28;20028;-71
2022/12/29 03:52:51;;;;;;;1.75;1.30;;;9.30;99.90;;;;;;5055603;28;20120;-71
2022/12/29 03:55:17;;;;;;;1.95;1.30;;;9.40;99.90;;;;;;5056183;28;20472;-71
2022/12/29 03:57:43;;;;;;;1.73;1.08;;;9.40;99.90;;;;;;5060495;28;20111;-71
2022/12/29 04:00:09;;;;;;;1.40;1.10;;;9.40;99.90;;;;;;5066734;28;20524;-71
2022/12/29 04:02:35;;;;;;;3.55;1.45;;;9.40;99.90;;;;;;5061586;28;20025;-71
2022/12/29 04:05:00;;;;;;;3.10;1.40;;;9.40;99.90;;;;;;5063783;28;20023;-72
2022/12/29 04:07:26;;;;;;;2.22;1.40;;;9.40;99.90;;;;;;5063384;28;20528;-72
2022/12/29 04:09:51;;;;;;;2.22;1.40;;;9.30;99.90;;;;;;5063682;28;20025;-72
2022/12/29 04:12:17;;;;;;;1.38;1.20;;;9.30;99.90;;;;;;5056887;28;20032;-71
2022/12/29 04:14:42;;;;;;;2.55;1.30;;;9.30;99.90;;;;;;5053796;28;20130;-71
2022/12/29 04:17:08;;;;;;;4.65;1.70;;;9.30;99.90;;;;;;5062060;28;20059;-71
2022/12/29 04:19:33;;;;;;;5.50;2.40;;;9.30;99.90;;;;;;5055979;28;20694;-71
2022/12/29 04:21:59;;;;;;;2.72;1.77;;;9.20;99.90;;;;;;5060373;28;20039;-71
2022/12/29 04:24:25;;;;;;;2.60;2.20;;;9.20;99.90;;;;;;5047504;28;20036;-71
2022/12/29 04:26:50;;;;;;;6.55;2.20;;;9.10;99.90;;;;;;5054323;28;20027;-71
2022/12/29 04:29:16;;;;;;;5.40;2.10;;;9.10;99.90;;;;;;5062887;28;20032;-71
2022/12/29 04:31:41;;;;;;;2.15;1.85;;;9.10;99.90;;;;;;5064092;28;20520;-71
2022/12/29 04:34:07;;;;;;;3.85;1.75;;;9.10;99.90;;;;;;5052713;28;20025;-71
2022/12/29 04:36:33;;;;;;;2.60;1.80;;;9.10;99.90;;;;;;5060919;28;20078;-71
2022/12/29 04:38:58;;;;;;;2.75;1.73;;;9.10;99.90;;;;;;5062984;28;20113;-72
2022/12/29 04:41:24;;;;;;;3.60;2.22;;;9.10;99.90;;;;;;5060563;28;20024;-72
2022/12/29 04:43:50;;;;;;;2.70;1.83;;;9.10;99.90;;;;;;5052808;28;20029;-72
2022/12/29 04:46:15;;;;;;;2.88;1.83;;;9.10;99.90;;;;;;5057987;28;20083;-71
2022/12/29 04:48:41;;;;;;;3.72;1.80;;;9.10;99.90;;;;;;5064516;28;20039;-72
2022/12/29 04:51:07;;;;;;;3.45;1.88;;;9.10;99.90;;;;;;5063138;28;20028;-71
2022/12/29 04:53:32;;;;;;;2.38;1.60;;;9.10;99.90;;;;;;5070331;28;20020;-72
2022/12/29 04:55:58;;;;;;;3.17;2.05;;;9.10;99.90;;;;;;5061193;28;20029;-72
2022/12/29 04:58:23;;;;;;;3.35;1.60;;;9.10;99.90;;;;;;5061760;28;20414;-71
2022/12/29 05:00:50;;;;;;;2.70;1.50;;;9.10;99.90;;;;;;5062258;28;20111;-72
2022/12/29 05:03:16;;;;;;;2.45;1.50;;;9.10;99.90;;;;;;5061458;28;20115;-71
2022/12/29 05:05:42;;;;;;;1.67;1.30;;;9.10;99.90;;;;;;5056133;28;20543;-72
2022/12/29 05:08:07;;;;;;;2.70;1.30;;;9.10;99.90;;;;;;5060954;28;20032;-71
2022/12/29 05:10:33;;;;;;;1.95;1.17;;;9.10;99.90;;;;;;5061719;28;20024;-71
2022/12/29 05:12:58;;;;;;;2.05;1.50;;;9.10;99.90;;;;;;5058975;28;20063;-72
2022/12/29 05:15:24;;;;;;;2.38;1.63;;;9.10;99.90;;;;;;5054857;28;20027;-71
2022/12/29 05:17:49;;;;;;;2.83;1.50;;;9.10;99.90;;;;;;5060575;28;20024;-71
2022/12/29 05:20:15;;;;;;;2.15;1.40;;;9.20;99.90;;;;;;5059361;28;20699;-71
2022/12/29 05:22:41;;;;;;;1.73;1.20;;;9.20;99.90;;;;;;5047864;28;20111;-71
2022/12/29 05:25:07;;;;;;;1.85;1.30;;;9.30;99.90;;;;;;5056318;28;20722;-71
2022/12/29 05:27:33;;;;;;;1.60;1.27;;;9.30;99.90;;;;;;5061146;28;20020;-71
2022/12/29 05:29:58;;;;;;;2.45;1.23;;;9.30;99.90;;;;;;5060233;28;20481;-71
2022/12/29 05:32:24;;;;;;;2.33;1.25;;;9.30;99.90;;;;;;5057116;28;20029;-71
2022/12/29 05:34:50;;;;;;;2.30;1.13;;;9.30;99.90;;;;;;5057121;28;20374;-71
2022/12/29 05:37:15;;;;;;;2.75;1.00;;;9.30;99.90;;;;;;5062077;28;20047;-71
2022/12/29 05:39:41;;;;;;;3.20;1.35;;;9.30;99.90;;;;;;5061490;28;20416;-71
2022/12/29 05:42:06;;;;;;;3.05;1.20;;;9.40;99.90;;;;;;5062515;28;20460;-71
2022/12/29 05:44:32;;;;;;;2.97;1.20;;;9.40;99.90;;;;;;5058921;28;20028;-71
2022/12/29 05:46:58;;;;;;;3.25;1.48;;;9.40;99.90;;;;;;5057524;28;20049;-71
2022/12/29 05:49:24;;;;;;;3.97;1.20;;;;;;;;;;5060414;28;20040;-71
2022/12/29 05:51:49;;;;;;;3.78;1.08;;;;;;;;;;5064422;28;20035;-71
2022/12/29 05:54:15;;;;;;;4.38;1.10;;;;;;;;;;5065709;28;20384;-71
2022/12/29 05:56:42;;;;;;;1.23;1.13;;;;;;;;;;5067219;28;20071;-71
2022/12/29 05:59:08;;;;;;;1.48;1.20;;;;;;;;;;5067848;28;20020;-71
2022/12/29 06:01:34;;;;;;;1.65;1.13;;;;;;;;;;5061719;28;20575;-70
2022/12/29 06:04:00;;;;;;;2.42;0.93;;;;;;;;;;5048306;28;20042;-71
2022/12/29 06:06:26;;;;;;;2.25;1.10;;;;;;;;;;5056984;28;20044;-71
2022/12/29 06:08:52;;;;;;;2.05;1.40;;;;;;;;;;5061836;28;20032;-71
2022/12/29 06:11:18;;;;;;;1.75;1.15;;;;;;;;;;5073800;28;20013;-71
2022/12/29 06:13:44;;;;;;;2.00;1.40;;;;;;;;;;5060355;28;20047;-72
2022/12/29 06:16:10;;;;;;;2.17;1.45;;;;;;;;;;5061816;28;20833;-71
2022/12/29 06:18:36;;;;;;;3.35;1.65;;;;;;;;;;5058712;28;20020;-71
2022/12/29 06:21:02;;;;;;;2.38;1.33;;;;;;;;;;5056486;28;20123;-71
2022/12/29 06:23:28;;;;;;;2.65;1.70;;;;;;;;;;5064938;28;20090;-73
2022/12/29 06:25:54;;;;;;;1.92;1.60;;;;;;;;;;5062178;28;20477;-72
2022/12/29 06:28:20;;;;;;;3.92;2.40;;;;;;;;;;4704778;28;10000191;-72
2022/12/29 06:30:47;;;;;;;3.67;1.77;;;;;;;;;;5060211;28;20331;-74
2022/12/29 06:33:13;;;;;;;4.95;2.38;;;;;;;;;;5053911;28;20103;-72
2022/12/29 06:35:39;;;;;;;4.10;1.85;;;;;;;;;;5055442;28;20026;-73
2022/12/29 06:38:05;;;;;;;3.63;2.05;;;;;;;;;;5055776;28;20521;-75
2022/12/29 06:40:31;;;;;;;6.65;2.17;;;9.30;99.90;;;;;;5059557;28;20031;-73
2022/12/29 06:42:57;;;;;;;2.70;2.08;;;9.30;99.90;;;;;;5055174;28;20044;-72
2022/12/29 06:45:23;;;;;;;3.67;2.35;;;9.30;99.90;;;;;;5052473;28;20447;-73
2022/12/29 06:47:48;;;;;;;5.20;2.58;;;9.20;99.90;;;;;;5066089;28;20137;-73
2022/12/29 06:50:14;;;;;;;4.03;2.60;;;9.20;99.90;;;;;;5058960;28;20025;-73
2022/12/29 06:52:40;;;;;;;4.40;2.60;;;9.20;99.90;;;;;;5062420;28;20086;-73
2022/12/29 06:55:06;;;;;;;5.25;2.30;;;9.20;99.90;;;;;;5060694;28;20514;-73
2022/12/29 06:57:31;;;;;;;5.78;2.80;;;9.10;99.90;;;;;;5057266;28;20024;-73
2022/12/29 06:59:57;;;;;;;4.90;2.70;;;9.20;99.90;;;;;;5063316;28;20075;-74
2022/12/29 07:02:24;;;;;;;5.20;2.75;;;9.10;99.90;;;;;;5051518;28;20029;-74
2022/12/29 07:04:53;;;;;;;5.20;2.65;;;9.10;99.90;;;;;;5048542;28;20043;-74
2022/12/29 07:07:19;;;;;;;7.45;2.88;;;9.10;99.90;;;;;;5051864;28;20493;-74
2022/12/29 07:09:46;;;;;;;4.65;2.65;;;9.20;99.90;;;;;;5061817;28;20032;-75
2022/12/29 07:12:11;;;;;;;5.80;2.60;;;9.10;99.90;;;;;;5063048;28;20060;-77
2022/12/29 07:14:37;;;;;;;6.55;2.53;;;9.20;99.90;;;;;;5062752;28;20606;-79
2022/12/29 07:17:14;;;;;;;4.63;2.60;;;9.20;99.90;;;;;;5051750;28;20033;-77
2022/12/29 07:19:39;;;;;;;7.03;2.75;;;9.20;99.90;;;;;;5056956;28;20033;-76
2022/12/29 07:22:05;;;;;;;4.57;2.53;;;9.20;99.90;;;;;;5049413;28;20090;-75
2022/12/29 07:24:31;;;;;;;10.43;4.43;;;9.20;99.90;;;;;;5061806;28;20024;-75
2022/12/29 07:26:56;;;;;;;6.78;3.17;;;9.20;99.90;;;;;;5065082;28;20035;-75
2022/12/29 07:29:22;;;;;;;5.97;2.70;;;9.20;99.90;;;;;;5061839;28;20028;-75
2022/12/29 07:31:48;;;;;;;7.00;2.40;;;9.20;99.90;;;;;;5068506;28;20028;-75
2022/12/29 07:34:13;;;;;;;7.95;2.70;;;9.20;99.90;;;;;;5059693;28;20017;-77
2022/12/29 07:36:39;;;;;;;3.60;2.50;;;9.20;99.90;;;;;;5058832;28;20408;-79
2022/12/29 07:39:05;;;;;;;5.18;2.83;;;9.20;99.90;;;;;;5053463;28;20067;-77
2022/12/29 07:41:30;;;;;;;6.47;3.08;;;9.20;99.90;;;;;;5061088;28;20021;-79
2022/12/29 07:43:56;;;;;;;4.90;3.03;;;9.20;99.90;;;;;;5065416;28;20044;-79
2022/12/29 07:46:21;;;;;;;5.30;3.42;;;9.30;99.90;;;;;;5059806;28;20055;-78
2022/12/29 07:48:47;;;;;;;6.30;3.20;;;9.20;99.90;;;;;;5066517;28;20041;-78
2022/12/29 07:51:12;;;;;;;5.78;3.10;;;9.20;99.90;;;;;;5069872;28;20663;-79
2022/12/29 07:53:38;;;;;;;5.43;3.30;;;9.20;99.90;;;;;;5072565;28;20065;-78
2022/12/29 07:56:04;;;;;;;6.45;3.70;;;9.20;99.90;;;;;;5063650;28;20401;-78
2022/12/29 07:58:29;;;;;;;5.40;3.22;;;9.20;99.90;;;;;;5068223;28;20035;-78
2022/12/29 08:00:56;;;;;;;4.43;2.80;;;9.20;99.90;;;;;;5055231;28;20114;-78
2022/12/29 08:03:22;;;;;;;5.60;3.47;;;9.20;99.90;;;;;;5054677;28;20066;-78
2022/12/29 08:05:49;;;;;;;4.82;3.20;;;9.20;99.90;;;;;;5059210;28;20060;-78
2022/12/29 08:08:15;;;;;;;6.40;2.88;;;9.20;99.90;;;;;;5059802;28;20025;-79
2022/12/29 08:10:40;;;;;;;6.88;3.70;;;9.20;99.90;;;;;;5063358;28;20029;-78
2022/12/29 08:13:06;;;;;;;8.77;3.42;;;9.30;99.90;;;;;;5069577;28;20586;-80
2022/12/29 08:15:32;;;;;;;8.43;3.13;;;9.30;99.90;;;;;;5053742;28;20033;-80
2022/12/29 08:17:57;;;;;;;5.90;3.47;;;9.20;99.90;;;;;;5042439;28;20370;-78
2022/12/29 08:20:23;;;;;;;6.18;3.03;;;9.30;99.90;;;;;;5056173;28;20029;-78
2022/12/29 08:22:48;;;;;;;6.28;3.33;;;9.20;99.90;;;;;;5061884;28;20085;-79
2022/12/29 08:25:14;;;;;;;9.20;4.30;;;9.20;99.90;;;;;;5056579;28;20120;-78
2022/12/29 08:27:40;;;;;;;3.97;3.20;;;9.20;99.90;;;;;;5059341;28;20025;-78
2022/12/29 08:30:07;;;;;;;4.68;2.90;;;9.20;99.90;;;;;;5058330;28;20471;-78
2022/12/29 08:32:33;;;;;;;7.22;3.70;;;9.20;99.90;;;;;;5064856;28;20024;-78
2022/12/29 08:34:59;;;;;;;3.92;3.03;;;9.20;99.90;;;;;;5055092;28;20055;-77
2022/12/29 08:37:24;;;;;;;7.63;3.10;;;9.20;99.90;;;;;;5063947;28;20028;-78
2022/12/29 08:39:50;;;;;;;5.35;3.50;;;9.20;99.90;;;;;;5058594;28;20708;-79
2022/12/29 08:42:16;;;;;;;5.72;3.42;;;9.20;99.90;;;;;;5063373;28;20063;-79
2022/12/29 08:44:42;;;;;;;7.82;3.63;;;;;;;;;;5061244;28;20035;-79
2022/12/29 08:47:10;;;;;;;9.10;4.70;;;9.20;99.90;;;;;;5062187;28;20501;-78
2022/12/29 08:49:35;;;;;;;8.23;5.80;;;9.20;99.90;;;;;;5056931;28;20045;-78
2022/12/29 08:52:01;;;;;;;6.68;3.72;;;9.20;99.90;;;;;;5060977;28;20071;-80
2022/12/29 08:54:27;;;;;;;7.70;3.03;;;;;;;;;;5061552;28;20126;-79
2022/12/29 08:56:53;;;;;;;7.40;3.85;;;9.20;99.90;;;;;;5066130;28;20017;-77
2022/12/29 08:59:19;;;;;;;5.60;3.45;;;9.20;99.90;;;;;;5062082;28;20485;-78
2022/12/29 09:01:44;;;;;;;6.65;3.08;;;9.20;99.90;;;;;;5061808;28;20048;-79
2022/12/29 09:04:10;;;;;;;6.15;2.35;;;9.20;99.90;;;;;;5049733;28;20044;-79
2022/12/29 09:06:59;;;;;;;6.15;2.67;;;9.30;99.90;;;;;;5050108;28;20102;-75
2022/12/29 09:09:24;;;;;;;3.33;2.20;;;9.40;99.90;;;;;;5038708;28;20265;-74
2022/12/29 09:11:50;;;;;;;3.92;2.10;;;9.40;99.90;;;;;;5060592;28;21913;-78
2022/12/29 09:14:15;;;;;;;6.72;2.95;;;9.50;99.90;;;;;;5059442;28;20035;-79
2022/12/29 09:19:25;;;;;;;2.65;1.55;;;9.50;99.90;;;;;;5057501;28;20084;-79
2022/12/29 09:21:51;;;;;;;2.42;1.30;;;;;;;;;;5063550;28;20032;-78
2022/12/29 09:24:17;;;;;;;2.75;1.10;;;9.50;99.90;;;;;;5060962;28;20042;-78
2022/12/29 09:26:42;;;;;;;1.17;0.80;;;9.50;99.90;;;;;;5058226;28;20024;-78
2022/12/29 09:29:08;;;;;;;1.45;0.93;;;9.60;99.90;;;;;;5054227;28;20094;-79
2022/12/29 09:31:33;;;;;;;2.63;1.05;;;9.60;99.90;;;;;;5056767;28;20565;-79
2022/12/29 09:33:59;;;;;;;1.38;1.10;;;9.60;99.90;;;;;;5059342;28;20048;-78
2022/12/29 09:36:25;;;;;;;3.88;1.23;;;9.60;99.90;;;;;;5066467;28;20040;-79
2022/12/29 09:38:52;;;;;;;1.30;1.05;;;9.70;99.90;;;;;;5063332;28;20027;-78
2022/12/29 09:41:26;;;;;;;4.05;1.60;;;9.70;99.90;;;;;;5055223;28;20038;-78
2022/12/29 09:44:06;;;;;;;5.47;1.45;;;9.70;99.90;;;;;;5059143;28;20409;-77
2022/12/29 09:47:00;;;;;;;2.45;1.20;;;9.70;99.90;;;;;;5056763;28;20501;-77
2022/12/29 09:49:49;;;;;;;2.15;1.23;;;9.80;99.90;;;;;;5051896;28;20102;-78
2022/12/29 09:52:21;;;;;;;4.00;1.20;;;9.80;99.90;;;;;;5059313;28;20062;-78
2022/12/29 09:55:04;;;;;;;1.30;1.00;;;9.80;99.90;;;;;;5060158;28;20545;-77
2022/12/29 09:57:40;;;;;;;3.58;1.13;;;9.80;99.90;;;;;;5056199;28;20029;-77
2022/12/29 10:00:16;;;;;;;2.40;1.40;;;9.80;99.90;;;;;;5056541;28;20111;-77
2022/12/29 10:02:47;;;;;;;4.47;1.40;;;9.80;99.90;;;;;;5059060;28;20650;-78
2022/12/29 10:05:18;;;;;;;1.55;1.02;;;9.90;99.90;;;;;;5052566;28;20035;-77
2022/12/29 10:08:02;;;;;;;5.05;1.30;;;10.00;99.90;;;;;;5055915;28;20036;-78
2022/12/29 10:10:37;;;;;;;3.75;1.20;;;10.10;99.90;;;;;;5058358;28;20111;-77
2022/12/29 10:13:09;;;;;;;2.15;1.23;;;10.20;99.90;;;;;;5057670;28;20040;-77
2022/12/29 10:15:40;;;;;;;2.35;1.17;;;10.20;99.90;;;;;;5058475;28;20674;-77
2022/12/29 10:18:25;;;;;;;1.65;1.00;;;10.20;99.90;;;;;;5054364;28;20066;-78
2022/12/29 10:21:01;;;;;;;4.72;1.13;;;;;;;;;;5053765;28;20021;-78
2022/12/29 10:23:33;;;;;;;2.50;1.20;;;10.20;99.90;;;;;;5056755;28;20365;-77
2022/12/29 10:26:01;;;;;;;1.65;1.30;;;10.20;99.90;;;;;;5059506;28;20383;-78
2022/12/29 10:28:50;;;;;;;2.67;1.20;;;10.20;99.90;;;;;;5057106;28;20538;-78
2022/12/29 10:31:23;;;;;;;2.80;1.30;;;10.20;99.90;;;;;;5054310;28;20028;-77
2022/12/29 10:33:56;;;;;;;1.58;1.23;;;10.20;99.90;;;;;;5055425;28;20120;-77
2022/12/29 10:36:25;;;;;;;4.25;2.53;;;10.20;99.90;;;;;;5061082;28;20122;-77
2022/12/29 10:39:03;;;;;;;1.88;1.17;;;10.20;99.90;;;;;;5059292;28;20028;-77
2022/12/29 10:41:50;;;;;;;1.67;0.80;;;;;;;;;;5065604;28;20673;-78
2022/12/29 10:44:17;;;;;;;1.95;0.90;;;10.30;99.90;;;;;;5065457;28;20157;-77
2022/12/29 10:46:45;;;;;;;2.80;1.00;;;10.30;99.90;;;;;;5064835;28;20066;-78
2022/12/29 10:49:17;;;;;;;1.42;0.80;;;10.30;99.90;;;;;;5056104;28;20075;-78
2022/12/29 10:51:46;;;;;;;3.75;1.77;;;10.30;99.90;;;;;;5053294;28;20029;-77
2022/12/29 10:54:27;;;;;;;1.15;0.80;;;10.30;99.90;;;;;;5064658;28;20066;-78
2022/12/29 10:56:55;;;;;;;4.82;1.83;;;10.30;99.90;;;;;;5067413;28;20024;-77
2022/12/29 10:59:22;;;;;;;3.55;1.48;;;;;;;;;;5068175;28;20396;-78
2022/12/29 11:02:08;;;;;;;2.28;0.80;;;;;;;;;;5061995;28;20488;-79
2022/12/29 11:04:34;;;;;;;2.20;0.90;;;;;;;;;;5060989;28;20596;-77
2022/12/29 11:07:01;;;;;;;2.22;0.77;;;10.40;99.90;;;;;;5067969;28;20123;-77
2022/12/29 11:09:29;;;;;;;1.55;0.70;;;;;;;;;;5070959;28;20504;-77
2022/12/29 11:11:55;;;;;;;2.28;0.75;;;;;;;;;;5056292;28;20579;-77
2022/12/29 11:14:31;;;;;;;2.97;0.85;;;;;;;;;;5062432;28;20020;-75
2022/12/29 11:17:01;;;;;;;2.83;0.80;;;10.40;99.90;;;;;;4708780;28;10000510;-77
2022/12/29 11:19:36;;;;;;;2.00;0.88;;;;;;;;;;5069943;28;20417;-76
2022/12/29 11:22:24;;;;;;;4.97;1.40;;;10.40;99.90;;;;;;5059282;28;20033;-77
2022/12/29 11:24:52;;;;;;;2.20;1.02;;;10.40;99.90;;;;;;5070007;28;20043;-76
2022/12/29 11:27:24;;;;;;;3.05;0.90;;;10.40;99.90;;;;;;5064007;28;20111;-77
2022/12/29 11:29:51;;;;;;;1.98;0.93;;;;;;;;;;5059743;28;20107;-75
2022/12/29 11:32:29;;;;;;;1.48;0.60;;;10.40;99.90;;;;;;5061149;28;20028;-77
2022/12/29 11:34:57;;;;;;;1.42;0.70;;;10.40;99.90;;;;;;5064948;28;20028;-76
2022/12/29 11:37:38;;;;;;;3.47;0.70;;;10.30;99.90;;;;;;5065064;28;20025;-78
2022/12/29 11:40:07;;;;;;;2.85;0.85;;;10.30;99.90;;;;;;5072156;28;20685;-77
2022/12/29 11:42:53;;;;;;;2.78;0.70;;;;;;;;;;5058158;28;20059;-80
2022/12/29 11:45:32;;;;;;;2.20;0.70;;;10.30;99.90;;;;;;5067555;28;20048;-75
2022/12/29 11:48:10;;;;;;;2.88;1.60;;;10.30;99.90;;;;;;5056049;28;20556;-80
2022/12/29 11:50:40;;;;;;;2.60;0.75;;;10.30;99.90;;;;;;5066997;28;20041;-81
2022/12/29 11:53:24;;;;;;;3.58;0.75;;;10.30;99.90;;;;;;5058052;28;20039;-81
2022/12/29 11:56:12;;;;;;;2.78;0.65;;;10.30;99.90;;;;;;5057457;28;20021;-81
2022/12/29 11:58:39;;;;;;;4.05;0.80;;;10.30;99.90;;;;;;5061408;28;20109;-81
2022/12/29 12:01:16;;;;;;;4.95;0.70;;;10.30;99.90;;;;;;5061593;28;20032;-79
2022/12/29 12:04:12;;;;;;;1.75;0.60;;;10.30;99.90;;;;;;5066409;28;20028;-76
2022/12/29 12:06:46;;;;;;;2.20;0.73;;;10.30;99.90;;;;;;5058468;28;20036;-76
2022/12/29 12:09:26;;;;;;;4.97;0.82;;;10.30;99.90;;;;;;5062939;28;20040;-76
2022/12/29 12:11:54;;;;;;;5.57;0.80;;;;;;;;;;5061713;28;20111;-75
2022/12/29 12:14:29;;;;;;;2.78;0.85;;;10.30;99.90;;;;;;5060919;28;20504;-75
2022/12/29 12:16:59;;;;;;;5.85;0.70;;;10.30;99.90;;;;;;5057475;28;20024;-75
2022/12/29 12:19:55;;;;;;;3.38;1.00;;;10.20;99.90;;;;;;5061884;28;20021;-75
2022/12/29 12:23:03;;;;;;;5.45;0.90;;;10.20;99.90;;;;;;5057138;28;20452;-75
2022/12/29 12:25:52;;;;;;;2.13;0.70;;;10.20;99.90;;;;;;5023795;28;20031;-77
2022/12/29 12:28:49;;;;;;;3.35;0.60;;;10.20;99.90;;;;;;5059804;28;20067;-76
2022/12/29 12:31:42;;;;;;;2.53;0.80;;;10.20;99.90;;;;;;5059697;28;20040;-75
2022/12/29 12:34:13;;;;;;;1.85;0.70;;;;;;;;;;5059732;28;20020;-76
2022/12/29 12:36:54;;;;;;;1.65;0.70;;;;;;;;;;5062098;28;20707;-77
2022/12/29 12:39:39;;;;;;;3.17;0.77;;;;;;;;;;5055379;28;20024;-77
2022/12/29 12:42:14;;;;;;;5.30;1.05;;;;;;;;;;5062757;28;20123;-77
2022/12/29 12:44:52;;;;;;;3.90;1.10;;;;;;;;;;5061929;28;20021;-75
2022/12/29 12:47:39;;;;;;;2.25;0.70;;;;;;;;;;5061126;28;20068;-76
2022/12/29 12:50:05;;;;;;;3.42;0.93;;;;;;;;;;5059582;28;20178;-77
2022/12/29 12:52:41;;;;;;;1.40;0.68;;;;;;;;;;5057699;28;20124;-75
2022/12/29 12:55:08;;;;;;;3.00;0.60;;;;;;;;;;5056612;28;20498;-74
2022/12/29 12:57:34;;;;;;;4.35;0.63;;;;;;;;;;5059574;28;20080;-75
2022/12/29 13:00:08;;;;;;;4.78;0.77;;;;;;;;;;5055306;28;20124;-74
2022/12/29 13:02:44;;;;;;;4.35;0.77;;;;;;;;;;5052785;28;20036;-76
2022/12/29 13:05:28;;;;;;;3.03;0.93;;;;;;;;;;5056420;28;20034;-75
2022/12/29 13:08:08;;;;;;;6.38;1.15;;;;;;;;;;5057701;28;20029;-76
2022/12/29 13:10:39;;;;;;;4.18;1.10;;;;;;;;;;5063772;28;20032;-75
2022/12/29 13:13:17;;;;;;;4.50;1.10;;;;;;;;;;5060036;28;20032;-77
2022/12/29 13:15:43;;;;;;;3.75;0.80;;;;;;;;;;5061774;28;20028;-75
2022/12/29 13:18:32;;;;;;;5.95;1.10;;;;;;;;;;5060141;28;20064;-74
2022/12/29 13:21:03;;;;;;;3.60;1.00;;;;;;;;;;5056249;28;20032;-78
2022/12/29 13:23:38;;;;;;;4.70;1.10;;;;;;;;;;5068167;28;20052;-77
2022/12/29 13:26:18;;;;;;;3.83;0.95;;;;;;;;;;5058427;28;20028;-77
2022/12/29 13:28:50;;;;;;;2.50;1.20;;;;;;;;;;5060549;28;20043;-78
2022/12/29 13:31:23;;;;;;;5.75;0.88;;;;;;;;;;5061445;28;20032;-76
2022/12/29 13:34:01;;;;;;;2.65;0.75;;;;;;;;;;5059555;28;20764;-76
2022/12/29 13:36:34;;;;;;;2.50;0.70;;;;;;;;;;5060024;28;20538;-77
2022/12/29 13:39:11;;;;;;;2.05;0.75;;;;;;;;;;5059193;28;20033;-78
2022/12/29 13:41:46;;;;;;;3.83;0.73;;;;;;;;;;5055783;28;20523;-78
2022/12/29 13:44:16;;;;;;;2.25;0.60;;;;;;;;;;5054239;28;20063;-77
2022/12/29 13:46:44;;;;;;;1.70;0.60;;;;;;;;;;5054479;28;20070;-75
2022/12/29 13:49:16;;;;;;;4.15;0.90;;;;;;;;;;5076727;28;20043;-83
2022/12/29 13:51:48;;;;;;;3.83;1.08;;;;;;;;;;5060271;28;20032;-76
2022/12/29 13:54:14;;;;;;;2.07;0.77;;;;;;;;;;5061310;28;20024;-78
2022/12/29 13:56:42;;;;;;;3.38;1.00;;;;;;;;;;5057426;28;20024;-75
2022/12/29 13:59:27;;;;;;;3.50;0.60;;;;;;;;;;5065979;28;20052;-75
2022/12/29 14:02:18;;;;;;;5.88;1.05;;;;;;;;;;5056111;28;20024;-75
2022/12/29 14:05:16;;;;;;;2.85;0.90;;;;;;;;;;5059961;28;20029;-80
2022/12/29 14:07:42;;;;;;;4.28;1.50;;;;;;;;;;4999877;28;20051;-75
2022/12/29 14:10:26;;;;;;;2.90;0.82;;;;;;;;;;5063026;28;20036;-76
2022/12/29 14:13:00;;;;;;;3.72;1.00;;;;;;;;;;5058228;28;20503;-75